Spearfish, SD

5:02 AM MDT on October 23, 2014 (GMT -0600)
Black Hills-Ice | Change Station
CLOSE
Current Station
Airport
Location: Spearfish,
Elevation: 3898 ft
Nearby Weather Stations

Elev 3898 ft 44.48 °N, 103.78 °W | Updated 7 minutes ago

Clear
Clear
43 °F
Feels Like 41 °F
N
4
Wind Variable Wind from West

Today
High -- | Low -- °F
--% Chance of Precip.
Yesterday
High -- | Low -- °F
Precip. -- in
7:20 AM 5:57 PM
Waning Crescent, 0% visible
Pressure 30.00 in
Visibility 10.0 miles
Clouds Clear
Windchill 41 °F
Dew Point 21 °F
Humidity 42%
Rainfall 0.00 in
Snow Depth 1 in
UV 0 out of 12
Pollen 2.60 out of 12
Air Quality Not available.
Flu Activity Sporadic
METAR KSPF 231055Z AUTO 28003KT 10SM CLR 06/M06 A3000 RMK AO2

More Conditions Fewer Conditions

Pressure 30.00 in
Visibility 10.0 miles
Clouds Clear
Windchill 41 °F
Dew Point 21 °F
Humidity 42%
Rainfall 0.00 in
Snow Depth 1 in
UV 0 out of 12
Pollen 2.60 out of 12
Air Quality Not available.
Flu Activity Sporadic
METAR KSPF 231055Z AUTO 28003KT 10SM CLR 06/M06 A3000 RMK AO2

More Conditions Fewer Conditions

10-Day Weather Forecast

Almanac

Astronomy

Oct. 23, 2014 Rise Set
Actual Time 7:20 AM MDT 5:57 PM MDT
Civil Twilight 6:50 AM MDT 6:27 PM MDT
Nautical Twilight 6:16 AM MDT 7:01 PM MDT
Astronomical Twilight 5:43 AM MDT 7:34 PM MDT
Moon 7:01 AM MDT 6:00 PM MDT
Length of Visible Light 11h 36m
Length of Day
10h 36m
Tomorrow will be 2m 53s shorter.
Waning Crescent, 0% of the Moon is Illuminated
Today
Waning Crescent
Oct 23
New
Oct 30
First Quarter
Nov 6
Full
Nov 14
Last Quarter

Today's Extremes

State Highs State Lows

Community

WunderPhotos

Upload Photos

1,764,204 photos uploaded!

Nearby

Snow Depth

Station Depth Elevation
North Rapid Creek 1 in 6130 ft
Blind Park 1 in 6890 ft

Earthquake Activity

City Distance Mag. Time & Date
No recent earthquake activity has been reported nearby.
Minimum magnitude displayed is 2.5.

Coastal Water Temperatures

Place Temperature
No Stations Reporting

Nearby Weather Stations